Time;durP1;ratioP1;P1;durP2;ratioP2;P2;SDS_P1;SDS_P2;PMS_P1;PMS_P2;Temp;Humidity;BMP_temperature;BMP_pressure;BME280_temperature;BME280_humidity;BME280_pressure;Samples;Min_cycle;Max_cycle;Signal;HPM_P1;HPM_P2
2022/02/12 00:01:25;;;;;;;18.50;5.65;;;26.30;80.00;;;;;;5107554;28;20036;-61
2022/02/12 00:03:51;;;;;;;10.48;5.45;;;26.40;80.30;;;;;;5126092;28;20051;-62
2022/02/12 00:06:18;;;;;;;10.75;5.25;;;26.40;80.60;;;;;;5126685;28;20019;-54
2022/02/12 00:08:44;;;;;;;7.85;5.03;;;26.40;80.50;;;;;;5126182;28;20034;-56
2022/02/12 00:11:11;;;;;;;11.65;5.05;;;26.40;80.60;;;;;;5126398;28;20027;-53
2022/02/12 00:13:38;;;;;;;12.00;4.28;;;26.40;80.80;;;;;;5115936;28;20066;-57
2022/02/12 00:16:04;;;;;;;6.63;4.20;;;26.30;80.60;;;;;;5101710;28;20185;-60
2022/02/12 00:18:31;;;;;;;6.57;4.10;;;26.40;80.70;;;;;;5097204;28;20020;-56
2022/02/12 00:20:58;;;;;;;9.82;4.00;;;26.30;80.60;;;;;;5086495;28;20080;-55
2022/02/12 00:23:25;;;;;;;5.85;3.88;;;26.30;80.70;;;;;;5086418;28;20031;-59
2022/02/12 00:25:51;;;;;;;8.75;4.43;;;26.30;80.90;;;;;;5086562;28;20024;-57
2022/02/12 00:28:18;;;;;;;6.13;4.47;;;26.30;80.90;;;;;;5086105;28;20047;-60
2022/02/12 00:30:45;;;;;;;11.90;4.75;;;26.30;81.10;;;;;;5086175;28;20021;-55
2022/02/12 00:33:11;;;;;;;8.38;4.80;;;26.30;81.10;;;;;;5085690;28;20025;-56
2022/02/12 00:35:38;;;;;;;13.30;5.50;;;26.30;81.10;;;;;;5085950;28;20228;-56
2022/02/12 00:38:05;;;;;;;10.30;5.32;;;26.30;81.00;;;;;;5085982;28;20028;-57
2022/02/12 00:40:31;;;;;;;11.80;6.05;;;26.30;81.10;;;;;;5085625;28;20024;-57
2022/02/12 00:42:58;;;;;;;7.95;5.45;;;26.30;80.90;;;;;;5085444;28;20020;-56
2022/02/12 00:45:24;;;;;;;10.05;5.70;;;26.30;80.80;;;;;;5085500;28;20028;-58
2022/02/12 00:47:51;;;;;;;11.32;5.60;;;26.30;80.70;;;;;;5066468;28;20337;-55
2022/02/12 00:50:18;;;;;;;72.85;10.02;;;26.30;80.50;;;;;;5085371;28;20020;-54
2022/02/12 00:52:45;;;;;;;57.15;9.15;;;26.30;80.50;;;;;;5085573;28;20031;-56
2022/02/12 00:55:11;;;;;;;30.65;7.88;;;26.30;80.40;;;;;;5085587;28;20374;-56
2022/02/12 00:57:38;;;;;;;17.27;6.75;;;26.30;80.30;;;;;;5096608;28;20066;-57
2022/02/12 01:00:06;;;;;;;10.10;6.28;;;26.30;80.10;;;;;;5085322;28;20028;-56
2022/02/12 01:02:33;;;;;;;12.88;5.70;;;26.30;80.10;;;;;;5084371;28;20059;-57
2022/02/12 01:04:59;;;;;;;10.20;6.10;;;26.30;80.10;;;;;;5085872;28;20023;-57
2022/02/12 01:07:26;;;;;;;16.80;6.43;;;26.30;80.00;;;;;;5097219;28;20024;-55
2022/02/12 01:09:53;;;;;;;13.35;6.60;;;26.30;80.00;;;;;;5105939;28;20059;-57
2022/02/12 01:12:19;;;;;;;13.40;6.45;;;26.30;79.70;;;;;;5112274;28;20046;-55
2022/02/12 01:14:46;;;;;;;11.25;6.68;;;26.30;79.40;;;;;;5126066;28;20027;-58
2022/02/12 01:17:14;;;;;;;11.52;6.97;;;26.30;79.50;;;;;;5124880;28;20079;-57
2022/02/12 01:19:40;;;;;;;11.00;7.22;;;26.30;79.70;;;;;;5107574;28;20016;-58
2022/02/12 01:22:07;;;;;;;15.85;7.32;;;26.30;79.50;;;;;;5107856;28;20312;-55
2022/02/12 01:24:34;;;;;;;12.02;7.80;;;26.30;79.50;;;;;;5108091;28;20102;-57
2022/02/12 01:27:01;;;;;;;13.88;7.60;;;26.30;79.50;;;;;;5124574;28;20246;-57
2022/02/12 01:29:29;;;;;;;12.68;7.00;;;26.30;79.90;;;;;;5116917;28;20019;-59
2022/02/12 01:32:03;;;;;;;10.70;7.07;;;26.30;80.20;;;;;;5105496;28;20209;-56
2022/02/12 01:34:33;;;;;;;11.15;7.70;;;26.30;80.50;;;;;;5110784;27;20019;-56
2022/02/12 01:37:01;;;;;;;12.13;7.90;;;26.30;80.40;;;;;;5092534;28;20099;-54
2022/02/12 01:39:28;;;;;;;10.65;7.13;;;26.30;80.30;;;;;;5125729;28;20079;-55
2022/02/12 01:41:59;;;;;;;11.85;7.60;;;26.30;80.20;;;;;;5125917;28;20023;-61
2022/02/12 01:44:29;;;;;;;10.82;7.20;;;26.30;80.30;;;;;;5119417;28;20027;-60
2022/02/12 01:46:56;;;;;;;9.40;7.15;;;26.30;80.40;;;;;;5103707;28;20034;-59
2022/02/12 01:49:23;;;;;;;12.77;7.50;;;26.30;80.80;;;;;;5112143;28;20095;-53
2022/02/12 01:51:49;;;;;;;13.43;7.43;;;26.30;81.20;;;;;;5125243;28;20027;-55
2022/02/12 01:54:16;;;;;;;11.70;7.40;;;26.20;81.20;;;;;;5125141;28;20307;-56
2022/02/12 01:56:47;;;;;;;11.60;7.75;;;26.20;81.30;;;;;;5125348;28;20034;-56
2022/02/12 01:59:14;;;;;;;16.17;7.80;;;26.30;81.50;;;;;;5107429;28;20015;-52
2022/02/12 02:01:41;;;;;;;14.15;7.53;;;26.30;81.40;;;;;;5125388;28;20029;-56
2022/02/12 02:04:08;;;;;;;12.00;7.07;;;26.20;80.90;;;;;;5125336;28;20016;-56
2022/02/12 02:06:34;;;;;;;10.25;7.05;;;26.20;80.70;;;;;;5106748;28;20039;-56
2022/02/12 02:09:03;;;;;;;16.75;7.22;;;26.20;80.70;;;;;;5115225;28;20038;-57
2022/02/12 02:11:31;;;;;;;11.27;7.47;;;26.20;81.00;;;;;;5140326;27;20088;-56
2022/02/12 02:13:58;;;;;;;12.80;7.57;;;26.20;81.20;;;;;;5124381;28;20040;-54
2022/02/12 02:16:24;;;;;;;11.77;7.53;;;26.20;81.30;;;;;;5124386;28;20008;-56
2022/02/12 02:18:51;;;;;;;9.70;7.38;;;26.20;81.60;;;;;;5124965;28;20020;-58
2022/02/12 02:21:18;;;;;;;8.90;7.00;;;26.20;81.70;;;;;;5124685;28;20091;-55
2022/02/12 02:23:45;;;;;;;9.88;6.60;;;26.20;81.70;;;;;;5124992;28;20042;-55
2022/02/12 02:26:13;;;;;;;10.80;7.53;;;26.20;81.80;;;;;;5097469;28;20372;-54
2022/02/12 02:28:39;;;;;;;10.25;7.30;;;26.10;81.50;;;;;;5124640;28;20046;-58
2022/02/12 02:31:06;;;;;;;9.75;7.43;;;26.10;81.50;;;;;;5123801;28;20098;-54
2022/02/12 02:33:33;;;;;;;10.40;7.82;;;26.10;81.30;;;;;;5117068;28;20023;-58
2022/02/12 02:35:59;;;;;;;12.13;8.18;;;26.20;81.20;;;;;;5122053;27;20019;-59
2022/02/12 02:38:26;;;;;;;11.15;8.07;;;26.20;81.00;;;;;;5121482;27;20043;-58
2022/02/12 02:40:56;;;;;;;15.70;8.52;;;26.20;80.80;;;;;;5144158;27;20098;-58
2022/02/12 02:43:23;;;;;;;12.90;7.72;;;26.20;80.70;;;;;;5122234;28;20055;-59
2022/02/12 02:45:51;;;;;;;19.27;8.43;;;26.20;80.60;;;;;;5108018;28;20024;-58
2022/02/12 02:48:18;;;;;;;11.35;7.40;;;26.20;80.50;;;;;;5116004;28;20311;-63
2022/02/12 02:56:17;;;;;;;9.57;7.40;;;26.20;79.90;;;;;;5104268;28;20027;-61
2022/02/12 02:58:49;;;;;;;13.00;7.90;;;26.20;80.10;;;;;;5106762;28;20028;-55
2022/02/12 03:01:20;;;;;;;9.97;7.50;;;26.30;80.20;;;;;;5103472;28;20023;-57
2022/02/12 03:03:49;;;;;;;11.65;7.78;;;26.30;80.10;;;;;;5104470;28;20272;-59
2022/02/12 03:06:17;;;;;;;11.02;7.20;;;26.30;80.20;;;;;;5113640;28;20032;-58
2022/02/12 03:08:45;;;;;;;8.02;7.22;;;26.20;80.00;;;;;;5104747;28;20031;-59
2022/02/12 03:11:13;;;;;;;9.95;8.25;;;26.30;80.40;;;;;;5114848;28;20316;-60
2022/02/12 03:13:42;;;;;;;10.00;7.85;;;26.30;80.30;;;;;;5134716;28;20102;-60
2022/02/12 03:16:09;;;;;;;11.20;7.97;;;26.20;80.30;;;;;;5144989;28;20206;-56
2022/02/12 03:18:41;;;;;;;8.25;7.30;;;26.30;80.40;;;;;;5134767;28;20023;-57
2022/02/12 03:21:07;;;;;;;;;;;26.30;80.40;;;;;;5113211;28;20043;-56
2022/02/12 03:23:34;;;;;;;10.02;7.78;;;26.30;80.10;;;;;;5122827;28;19949;-57
2022/02/12 03:26:01;;;;;;;9.88;7.20;;;26.30;80.10;;;;;;5125984;27;20043;-55
2022/02/12 03:28:27;;;;;;;8.07;7.28;;;26.30;79.90;;;;;;5140327;27;20078;-54
2022/02/12 03:30:55;;;;;;;10.77;7.05;;;26.30;79.80;;;;;;5143635;27;20035;-52
2022/02/12 03:33:21;;;;;;;9.55;7.32;;;26.30;79.70;;;;;;5120898;28;20195;-58
2022/02/12 03:35:53;;;;;;;11.43;7.40;;;26.30;79.70;;;;;;5116003;28;20353;-56
2022/02/12 03:38:24;;;;;;;11.48;7.78;;;26.20;79.60;;;;;;5106678;28;20024;-58
2022/02/12 03:40:54;;;;;;;10.45;7.95;;;26.30;79.60;;;;;;5106345;28;20050;-60
2022/02/12 03:43:21;;;;;;;11.10;7.38;;;26.30;79.60;;;;;;5118749;27;20023;-59
2022/02/12 03:45:48;;;;;;;7.95;6.78;;;26.30;79.50;;;;;;5146225;27;20034;-58
2022/02/12 03:48:15;;;;;;;11.15;6.78;;;26.30;79.50;;;;;;5126222;27;20022;-59
2022/02/12 03:50:42;;;;;;;12.40;7.13;;;26.30;79.40;;;;;;5112587;27;20102;-59
2022/02/12 03:53:09;;;;;;;13.57;7.68;;;26.30;79.50;;;;;;5135692;27;20026;-59
2022/02/12 03:55:39;;;;;;;8.93;7.30;;;26.30;79.50;;;;;;5126879;27;20012;-61
2022/02/12 03:58:10;;;;;;;8.93;7.32;;;26.30;79.50;;;;;;5125069;28;20015;-60
2022/02/12 04:00:39;;;;;;;9.90;6.97;;;26.30;79.50;;;;;;5124095;28;20300;-55
2022/02/12 04:03:06;;;;;;;8.82;6.88;;;26.30;79.60;;;;;;5108391;28;20023;-55
2022/02/12 04:05:33;;;;;;;9.30;6.82;;;26.30;79.50;;;;;;5126183;28;20043;-55
2022/02/12 04:08:01;;;;;;;13.77;7.40;;;26.30;79.50;;;;;;5126683;28;20019;-58
2022/02/12 04:10:28;;;;;;;10.77;6.90;;;26.30;79.50;;;;;;5127374;28;20172;-62
2022/02/12 04:12:54;;;;;;;8.07;6.60;;;26.30;79.40;;;;;;5114529;27;20035;-57
2022/02/12 04:15:23;;;;;;;8.82;6.60;;;26.30;79.30;;;;;;5118405;28;20023;-59
2022/02/12 04:17:50;;;;;;;8.35;7.00;;;26.30;79.20;;;;;;5113134;28;20028;-57
2022/02/12 04:20:19;;;;;;;10.85;7.30;;;26.30;79.10;;;;;;5113358;28;20008;-60
2022/02/12 04:22:46;;;;;;;10.55;7.00;;;26.30;79.00;;;;;;5106502;28;20043;-56
2022/02/12 04:25:16;;;;;;;9.95;6.72;;;26.30;79.00;;;;;;5105796;28;20099;-58
2022/02/12 04:27:43;;;;;;;7.65;6.50;;;26.30;79.00;;;;;;5120436;28;20015;-56
2022/02/12 04:30:11;;;;;;;25.17;9.40;;;26.30;78.90;;;;;;5108593;28;20134;-56
2022/02/12 04:32:39;;;;;;;14.13;7.72;;;26.30;79.00;;;;;;5126872;28;20046;-58
2022/02/12 04:35:07;;;;;;;12.98;6.85;;;26.30;79.00;;;;;;5126784;28;20026;-59
2022/02/12 04:37:35;;;;;;;9.95;7.25;;;26.30;79.00;;;;;;5119341;28;20020;-57
2022/02/12 04:40:02;;;;;;;11.70;7.32;;;26.20;78.90;;;;;;5122937;28;20304;-59
2022/02/12 04:42:29;;;;;;;8.45;7.18;;;26.30;79.50;;;;;;5126677;28;20263;-58
2022/02/12 04:44:55;;;;;;;10.48;6.57;;;26.20;78.90;;;;;;5124871;28;20349;-58
2022/02/12 04:47:22;;;;;;;11.45;6.78;;;26.30;79.00;;;;;;5124792;28;20059;-60
2022/02/12 04:49:50;;;;;;;8.80;6.97;;;26.20;78.90;;;;;;5124866;28;20019;-61
2022/02/12 04:52:19;;;;;;;7.82;7.07;;;26.20;78.90;;;;;;5125209;28;20026;-61
2022/02/12 04:54:46;;;;;;;9.45;6.57;;;26.20;78.80;;;;;;5124735;28;20020;-59
2022/02/12 04:57:13;;;;;;;9.30;6.82;;;26.30;78.90;;;;;;5125066;28;20024;-61
2022/02/12 04:59:40;;;;;;;7.65;6.93;;;26.30;78.90;;;;;;5125705;28;20058;-57
2022/02/12 05:02:06;;;;;;;9.50;6.95;;;26.20;78.90;;;;;;5126555;28;20303;-61
2022/02/12 05:04:33;;;;;;;8.55;6.40;;;26.30;78.80;;;;;;5118305;27;20029;-58
2022/02/12 05:07:00;;;;;;;7.32;6.45;;;26.20;78.70;;;;;;5124257;28;20031;-55
2022/02/12 05:09:26;;;;;;;9.95;7.05;;;26.30;78.80;;;;;;5124393;28;20027;-60
2022/02/12 05:11:54;;;;;;;9.23;6.53;;;26.20;78.70;;;;;;5127731;27;20051;-57
2022/02/12 05:14:21;;;;;;;9.52;6.60;;;26.20;78.70;;;;;;5144897;27;20034;-57
2022/02/12 05:16:48;;;;;;;10.50;6.82;;;26.20;78.60;;;;;;5126659;27;20023;-59
2022/02/12 05:19:15;;;;;;;7.25;6.55;;;26.20;78.60;;;;;;5143837;27;20358;-58
2022/02/12 05:21:41;;;;;;;8.80;6.47;;;26.20;78.60;;;;;;5138534;27;20027;-59
2022/02/12 05:24:08;;;;;;;8.20;6.80;;;26.20;78.60;;;;;;5146878;27;20152;-59
2022/02/12 05:26:35;;;;;;;10.00;6.60;;;26.20;78.60;;;;;;5128765;27;20047;-60
2022/02/12 05:29:03;;;;;;;8.40;6.20;;;26.20;78.60;;;;;;5146689;27;20090;-59
2022/02/12 05:31:29;;;;;;;10.30;6.53;;;26.20;78.50;;;;;;5146610;27;20038;-57
2022/02/12 05:33:56;;;;;;;7.03;6.30;;;26.20;78.50;;;;;;5146085;27;20026;-61
2022/02/12 05:36:23;;;;;;;7.10;6.40;;;26.10;78.50;;;;;;5146543;27;20041;-61
2022/02/12 05:38:49;;;;;;;9.30;6.45;;;26.20;78.50;;;;;;5128010;27;20030;-60
2022/02/12 05:41:16;;;;;;;11.80;7.00;;;26.20;78.40;;;;;;5146319;27;20023;-60
2022/02/12 05:43:43;;;;;;;8.98;6.07;;;26.20;78.60;;;;;;5145950;27;20054;-59
2022/02/12 05:46:13;;;;;;;9.98;6.68;;;26.20;78.60;;;;;;5146137;27;20211;-59
2022/02/12 05:48:40;;;;;;;7.47;6.00;;;26.10;78.40;;;;;;5145640;27;20234;-59
2022/02/12 05:51:06;;;;;;;7.53;6.18;;;26.20;78.40;;;;;;5146060;27;20034;-58
2022/02/12 05:53:33;;;;;;;8.13;5.95;;;26.10;78.20;;;;;;5145766;27;20026;-60
2022/02/12 05:56:00;;;;;;;7.85;6.40;;;26.10;78.30;;;;;;5146113;27;20023;-59
2022/02/12 05:58:26;;;;;;;7.57;6.22;;;26.10;78.30;;;;;;5145903;27;20369;-60
2022/02/12 06:00:53;;;;;;;6.82;6.20;;;26.10;78.20;;;;;;5145657;27;20073;-60
2022/02/12 06:03:19;;;;;;;7.43;6.07;;;26.10;78.30;;;;;;5145604;27;20019;-59
2022/02/12 06:05:47;;;;;;;6.75;6.03;;;26.10;78.30;;;;;;5145674;27;20029;-61
2022/02/12 06:08:14;;;;;;;6.75;5.90;;;26.10;78.20;;;;;;5110242;27;20054;-59
2022/02/12 06:10:40;;;;;;;8.63;6.25;;;26.10;78.20;;;;;;5145717;27;20049;-59
2022/02/12 06:13:07;;;;;;;8.25;5.53;;;26.10;78.20;;;;;;5145271;27;20043;-58
2022/02/12 06:15:36;;;;;;;7.63;6.15;;;26.10;78.20;;;;;;5145836;27;20027;-60
2022/02/12 06:18:06;;;;;;;7.72;6.50;;;26.10;78.10;;;;;;5127373;27;20015;-63
2022/02/12 06:20:33;;;;;;;6.72;5.78;;;26.10;78.60;;;;;;5145638;27;20123;-58
2022/02/12 06:23:00;;;;;;;7.22;6.50;;;26.10;78.10;;;;;;5145345;27;20058;-59
2022/02/12 06:25:27;;;;;;;7.32;6.15;;;26.10;78.10;;;;;;5145265;27;20030;-59
2022/02/12 06:27:54;;;;;;;6.38;5.78;;;26.10;78.10;;;;;;5145841;27;20082;-59
2022/02/12 06:30:21;;;;;;;6.85;6.18;;;26.10;78.10;;;;;;5145112;27;20026;-60
2022/02/12 06:32:47;;;;;;;7.05;6.18;;;26.10;78.20;;;;;;5144981;27;20019;-59
2022/02/12 06:35:14;;;;;;;6.28;5.68;;;26.10;78.40;;;;;;5145245;27;20117;-59
2022/02/12 06:37:40;;;;;;;9.52;5.93;;;26.10;78.50;;;;;;5145183;27;20323;-58
2022/02/12 06:40:08;;;;;;;9.23;6.00;;;26.10;78.50;;;;;;5145123;27;20026;-58
2022/02/12 06:42:34;;;;;;;8.45;6.20;;;26.10;78.40;;;;;;5145476;27;20322;-58
2022/02/12 06:45:01;;;;;;;7.30;6.25;;;26.10;78.60;;;;;;5145451;28;20023;-58
2022/02/12 06:47:28;;;;;;;7.15;5.53;;;26.10;78.70;;;;;;5145898;28;20015;-61
2022/02/12 06:49:54;;;;;;;7.70;5.82;;;26.00;78.60;;;;;;5145067;28;20234;-58
2022/02/12 06:52:21;;;;;;;9.43;6.20;;;26.00;78.40;;;;;;5145271;28;20121;-58
2022/02/12 06:54:47;;;;;;;7.63;6.30;;;26.10;78.50;;;;;;5145091;28;20015;-58
2022/02/12 06:57:14;;;;;;;7.70;5.63;;;26.10;78.30;;;;;;5145352;28;20033;-55
2022/02/12 06:59:42;;;;;;;7.88;5.90;;;26.00;78.30;;;;;;5146024;27;20015;-58
2022/02/12 07:02:08;;;;;;;9.15;5.88;;;26.00;78.20;;;;;;5149760;27;20027;-58
2022/02/12 07:04:35;;;;;;;11.98;6.40;;;26.10;78.30;;;;;;5149518;27;20203;-58
2022/02/12 07:07:02;;;;;;;8.77;6.13;;;26.00;78.10;;;;;;5149279;27;20064;-59
2022/02/12 07:09:28;;;;;;;9.35;6.03;;;26.00;78.30;;;;;;5149019;27;20023;-59
2022/02/12 07:11:55;;;;;;;9.05;6.18;;;26.00;78.40;;;;;;5149293;27;20327;-59
2022/02/12 07:14:21;;;;;;;9.02;5.90;;;26.00;78.40;;;;;;5149134;27;20019;-58
2022/02/12 07:16:48;;;;;;;9.95;5.82;;;26.00;78.40;;;;;;5149358;27;20023;-61
2022/02/12 07:19:14;;;;;;;8.38;6.00;;;26.00;78.50;;;;;;5130844;27;20015;-59
2022/02/12 07:21:41;;;;;;;8.32;5.82;;;26.00;78.50;;;;;;5149436;27;20020;-59
2022/02/12 07:24:08;;;;;;;11.85;6.07;;;26.00;78.50;;;;;;5148795;27;20027;-59
2022/02/12 07:26:34;;;;;;;6.60;5.90;;;26.00;78.50;;;;;;5149296;27;20303;-59
2022/02/12 07:29:01;;;;;;;7.38;6.03;;;26.00;78.60;;;;;;5149036;27;20220;-58
2022/02/12 07:31:28;;;;;;;8.60;5.93;;;26.00;78.70;;;;;;5148588;27;20270;-59
2022/02/12 07:33:54;;;;;;;9.25;5.93;;;26.00;78.70;;;;;;5148726;27;20031;-59
2022/02/12 07:36:21;;;;;;;10.60;6.10;;;26.00;78.70;;;;;;5149034;27;20019;-59
2022/02/12 07:38:47;;;;;;;9.95;6.10;;;26.00;78.80;;;;;;5148594;27;20278;-58
2022/02/12 07:41:16;;;;;;;6.80;5.95;;;26.00;78.80;;;;;;5148963;27;20015;-63
2022/02/12 07:43:46;;;;;;;7.70;5.93;;;26.00;78.90;;;;;;5148262;27;20026;-59
2022/02/12 07:46:14;;;;;;;6.72;5.88;;;26.00;78.90;;;;;;5148794;27;20042;-60
2022/02/12 07:48:42;;;;;;;8.07;6.28;;;26.00;78.90;;;;;;5148350;27;20023;-61
2022/02/12 07:51:09;;;;;;;10.68;6.60;;;26.00;78.90;;;;;;5148206;27;20027;-59
2022/02/12 07:53:36;;;;;;;9.98;5.82;;;26.00;78.80;;;;;;5148448;27;20023;-63
2022/02/12 07:56:03;;;;;;;8.80;6.30;;;25.90;78.90;;;;;;5148332;27;20034;-63
2022/02/12 07:58:30;;;;;;;7.88;6.00;;;26.00;78.90;;;;;;5148392;27;20030;-59
2022/02/12 08:00:56;;;;;;;6.60;5.97;;;25.90;78.80;;;;;;5147951;27;20023;-59
2022/02/12 08:03:23;;;;;;;7.38;6.28;;;25.90;78.70;;;;;;5147842;27;20023;-62
2022/02/12 08:05:50;;;;;;;9.07;6.53;;;25.90;78.60;;;;;;5148103;27;20066;-59
2022/02/12 08:08:16;;;;;;;7.65;5.97;;;25.90;78.60;;;;;;5147863;27;20026;-59
2022/02/12 08:13:35;;;;;;;8.05;6.05;;;25.90;78.50;;;;;;5123833;27;20047;-59
2022/02/12 08:16:02;;;;;;;10.48;6.15;;;25.90;78.50;;;;;;5148223;27;20065;-59
2022/02/12 08:18:28;;;;;;;8.57;6.10;;;25.90;78.40;;;;;;5148033;27;20071;-59
2022/02/12 08:20:55;;;;;;;8.65;6.03;;;25.90;78.40;;;;;;5147844;27;20023;-59
2022/02/12 08:23:21;;;;;;;8.82;6.18;;;25.90;78.40;;;;;;5148017;27;20031;-60
2022/02/12 08:25:48;;;;;;;7.20;6.50;;;25.90;78.40;;;;;;5148034;27;20057;-62
2022/02/12 08:28:15;;;;;;;6.90;6.15;;;25.90;78.50;;;;;;5129256;27;20219;-59
2022/02/12 08:30:41;;;;;;;7.90;6.28;;;25.90;78.50;;;;;;5147542;27;20094;-59
2022/02/12 08:33:08;;;;;;;7.13;6.43;;;25.90;78.50;;;;;;5147349;27;20307;-59
2022/02/12 08:35:34;;;;;;;10.75;6.43;;;25.80;78.40;;;;;;5147274;27;20051;-59
2022/02/12 08:38:01;;;;;;;10.63;6.18;;;25.90;78.50;;;;;;5147208;27;20026;-62
2022/02/12 08:40:28;;;;;;;9.18;6.40;;;25.90;78.50;;;;;;5147360;27;20034;-59
2022/02/12 08:42:54;;;;;;;7.40;6.15;;;25.80;78.40;;;;;;5147614;27;20123;-60
2022/02/12 08:45:21;;;;;;;8.85;6.45;;;25.90;78.40;;;;;;5147221;27;20019;-59
2022/02/12 08:47:48;;;;;;;9.73;6.45;;;25.90;78.40;;;;;;5147121;27;20027;-59
2022/02/12 08:50:15;;;;;;;6.88;5.93;;;25.80;78.20;;;;;;5146848;27;20022;-59
2022/02/12 08:52:43;;;;;;;7.20;6.32;;;25.80;78.30;;;;;;5146876;27;20210;-60
2022/02/12 08:55:12;;;;;;;8.77;6.20;;;25.80;78.30;;;;;;5146806;27;20241;-60
2022/02/12 08:57:40;;;;;;;7.00;6.28;;;25.80;78.20;;;;;;5146990;27;20019;-63
2022/02/12 09:00:12;;;;;;;11.05;6.20;;;25.80;78.20;;;;;;5146923;27;20124;-60
2022/02/12 09:02:39;;;;;;;11.07;6.10;;;25.80;78.20;;;;;;5146955;27;20019;-60
2022/02/12 09:05:06;;;;;;;9.18;5.65;;;25.80;78.20;;;;;;5146708;27;20011;-59
2022/02/12 09:07:33;;;;;;;9.45;6.20;;;25.80;78.20;;;;;;5146680;27;20307;-60
2022/02/12 09:10:01;;;;;;;9.20;6.43;;;25.80;78.20;;;;;;5146817;27;20023;-59
2022/02/12 09:12:28;;;;;;;8.68;5.95;;;25.80;78.20;;;;;;5146730;27;20252;-59
2022/02/12 09:14:55;;;;;;;9.02;5.80;;;25.80;78.30;;;;;;5146886;27;20195;-59
2022/02/12 09:17:21;;;;;;;6.80;6.00;;;25.80;78.20;;;;;;5147297;27;20019;-59
2022/02/12 09:19:48;;;;;;;8.40;5.90;;;25.80;78.30;;;;;;5146536;27;20026;-58
2022/02/12 09:22:16;;;;;;;8.75;5.78;;;25.80;78.30;;;;;;5146497;27;20034;-58
2022/02/12 09:24:43;;;;;;;7.78;5.80;;;25.80;78.30;;;;;;5146208;27;20023;-58
2022/02/12 09:27:10;;;;;;;12.32;6.32;;;25.80;78.20;;;;;;5146676;27;20050;-58
2022/02/12 09:29:36;;;;;;;7.97;5.90;;;25.80;78.30;;;;;;5146618;27;20060;-59
2022/02/12 09:32:03;;;;;;;11.10;6.30;;;25.80;78.10;;;;;;5146783;27;20038;-58
2022/02/12 09:34:30;;;;;;;6.82;6.13;;;25.80;78.20;;;;;;5146409;27;20037;-60
2022/02/12 09:36:56;;;;;;;9.88;5.93;;;25.80;78.20;;;;;;5146869;27;20082;-59
2022/02/12 09:39:23;;;;;;;9.95;6.03;;;25.80;78.10;;;;;;5146708;27;20019;-60
2022/02/12 09:41:49;;;;;;;10.35;5.90;;;25.80;78.10;;;;;;5146228;27;20026;-58
2022/02/12 09:44:16;;;;;;;8.70;5.85;;;25.80;78.00;;;;;;5146074;27;20023;-59
2022/02/12 09:47:13;;;;;;;8.88;6.15;;;25.80;78.10;;;;;;5146582;27;20234;-59
2022/02/12 09:49:42;;;;;;;7.78;5.82;;;25.80;78.20;;;;;;5145803;27;20059;-59
2022/02/12 09:52:11;;;;;;;11.10;6.20;;;25.80;78.30;;;;;;5146895;27;20029;-58
2022/02/12 09:54:40;;;;;;;7.15;6.22;;;25.80;78.30;;;;;;5145872;27;20022;-59
2022/02/12 09:57:07;;;;;;;7.35;6.32;;;25.80;78.40;;;;;;5146314;27;20015;-59
2022/02/12 09:59:34;;;;;;;8.25;6.38;;;25.80;78.30;;;;;;5145585;27;20015;-57
2022/02/12 10:02:00;;;;;;;6.80;5.97;;;25.80;78.40;;;;;;5145959;27;20050;-59
2022/02/12 10:04:29;;;;;;;9.77;6.20;;;25.80;78.50;;;;;;5145674;27;20307;-59
2022/02/12 10:06:55;;;;;;;8.40;6.30;;;25.80;78.50;;;;;;5146212;27;20072;-57
2022/02/12 10:09:22;;;;;;;10.52;6.55;;;25.80;78.50;;;;;;5146186;27;20084;-59
2022/02/12 10:11:51;;;;;;;8.88;5.82;;;25.80;78.60;;;;;;5145728;27;20019;-59
2022/02/12 10:14:26;;;;;;;9.82;6.32;;;25.80;78.70;;;;;;5145397;27;20026;-57
2022/02/12 10:16:58;;;;;;;8.60;6.30;;;25.80;78.90;;;;;;5145880;27;20282;-58
2022/02/12 10:19:41;;;;;;;8.07;6.20;;;25.70;78.90;;;;;;5145489;27;20046;-61
2022/02/12 10:22:18;;;;;;;9.52;5.93;;;25.80;78.90;;;;;;5145925;27;20063;-58
2022/02/12 10:24:46;;;;;;;8.38;6.45;;;25.80;78.90;;;;;;5145273;27;20050;-59
2022/02/12 10:27:12;;;;;;;7.68;6.30;;;25.70;78.90;;;;;;5145977;27;20097;-58
2022/02/12 10:29:39;;;;;;;9.55;6.43;;;25.70;78.80;;;;;;5145267;27;20015;-58
2022/02/12 10:32:06;;;;;;;9.05;6.32;;;25.70;78.90;;;;;;5146100;27;20207;-58
2022/02/12 10:34:45;;;;;;;7.90;6.00;;;25.70;79.00;;;;;;5144062;27;20023;-58
2022/02/12 10:37:17;;;;;;;11.27;6.28;;;25.80;79.20;;;;;;5146035;27;20047;-58
2022/02/12 10:40:09;;;;;;;12.32;6.38;;;25.70;79.10;;;;;;5145287;27;20007;-62
2022/02/12 10:42:43;;;;;;;;;;;25.80;79.30;;;;;;5142135;27;20027;-59
2022/02/12 10:45:18;;;;;;;8.73;6.75;;;25.70;79.40;;;;;;5145847;27;19911;-58
2022/02/12 10:47:51;;;;;;;6.25;5.65;;;25.70;79.50;;;;;;5144975;28;20056;-60
2022/02/12 10:50:19;;;;;;;12.05;6.95;;;25.70;79.50;;;;;;5144928;28;20023;-60
2022/02/12 10:52:47;;;;;;;10.65;6.68;;;25.70;79.50;;;;;;5144780;28;20027;-61
2022/02/12 10:55:35;;;;;;;10.30;6.90;;;25.70;79.70;;;;;;5144919;28;20014;-58
2022/02/12 10:58:13;;;;;;;10.40;7.20;;;25.70;79.90;;;;;;5145230;28;20043;-59
2022/02/12 11:00:41;;;;;;;10.38;7.07;;;25.70;80.00;;;;;;5145036;28;20027;-58
2022/02/12 11:03:12;;;;;;;17.33;10.55;;;25.70;80.00;;;;;;5144745;28;20233;-58
2022/02/12 11:05:48;;;;;;;17.13;9.57;;;25.70;80.20;;;;;;5144959;28;20034;-56
2022/02/12 11:08:15;;;;;;;17.60;10.25;;;25.70;80.50;;;;;;5144819;28;20050;-60
2022/02/12 11:10:42;;;;;;;15.48;9.50;;;25.70;80.80;;;;;;5144732;28;20027;-59
2022/02/12 11:13:09;;;;;;;12.77;8.88;;;25.70;80.80;;;;;;5144426;28;20039;-59
2022/02/12 11:15:37;;;;;;;15.68;9.40;;;25.70;80.70;;;;;;5144812;28;20030;-59
2022/02/12 11:18:10;;;;;;;15.80;10.00;;;25.70;80.90;;;;;;5145123;28;20032;-57
2022/02/12 11:20:39;;;;;;;16.73;10.07;;;25.70;81.10;;;;;;5144985;28;20023;-60
2022/02/12 11:23:21;;;;;;;15.65;10.43;;;25.70;81.10;;;;;;5144851;28;20124;-59
2022/02/12 11:26:08;;;;;;;16.20;11.63;;;25.70;81.20;;;;;;5145219;28;20086;-59
2022/02/12 11:28:38;;;;;;;18.90;10.95;;;25.70;81.50;;;;;;5143521;28;20255;-58
2022/02/12 11:31:27;;;;;;;14.40;9.77;;;25.60;81.40;;;;;;5133463;28;20106;-56
2022/02/12 11:34:17;;;;;;;15.68;9.45;;;25.60;81.60;;;;;;5117812;28;20027;-57
2022/02/12 11:36:47;;;;;;;17.98;9.52;;;25.60;81.50;;;;;;5124174;28;20088;-60
2022/02/12 11:39:18;;;;;;;15.93;9.38;;;25.60;81.50;;;;;;5123783;28;20300;-59
2022/02/12 11:41:53;;;;;;;13.85;9.25;;;25.60;81.50;;;;;;5123960;28;20239;-59
2022/02/12 11:44:46;;;;;;;18.00;9.50;;;25.60;81.50;;;;;;5123806;28;20030;-58
2022/02/12 11:47:14;;;;;;;15.93;9.95;;;25.60;81.60;;;;;;5127594;28;20046;-57
2022/02/12 11:49:42;;;;;;;13.15;9.32;;;25.70;81.70;;;;;;5127570;28;20035;-58
2022/02/12 11:52:31;;;;;;;15.32;10.23;;;25.60;81.90;;;;;;5127675;28;20027;-59
2022/02/12 11:55:00;;;;;;;16.63;10.45;;;25.70;82.20;;;;;;5115542;28;20062;-59
2022/02/12 11:57:27;;;;;;;17.65;11.25;;;25.60;82.00;;;;;;5127810;28;20242;-58
2022/02/12 12:00:13;;;;;;;20.85;12.05;;;25.70;82.10;;;;;;5127269;28;20086;-60
2022/02/12 12:02:45;;;;;;;26.70;14.30;;;25.70;82.40;;;;;;5113714;28;20039;-60
2022/02/12 12:05:19;;;;;;;28.23;13.30;;;25.60;83.80;;;;;;5127404;28;20027;-60
2022/02/12 12:08:01;;;;;;;19.48;11.27;;;25.60;83.90;;;;;;5127741;28;20076;-57
2022/02/12 12:10:29;;;;;;;20.93;10.50;;;25.60;84.30;;;;;;5133981;27;20031;-59
2022/02/12 12:13:26;;;;;;;72.28;15.30;;;25.60;84.00;;;;;;5147665;27;20147;-58
2022/02/12 12:15:57;;;;;;;72.63;17.52;;;25.60;83.80;;;;;;5083513;28;20036;-59
2022/02/12 12:18:27;;;;;;;51.90;13.88;;;25.60;83.60;;;;;;5106513;28;20096;-60
2022/02/12 12:20:54;;;;;;;36.80;13.05;;;25.60;83.60;;;;;;5105805;28;20161;-59
2022/02/12 12:23:22;;;;;;;22.48;10.43;;;25.60;83.50;;;;;;5106809;28;20024;-58
2022/02/12 12:25:53;;;;;;;33.22;11.63;;;25.60;83.70;;;;;;5106641;28;20035;-58
2022/02/12 12:28:28;;;;;;;37.60;11.95;;;25.70;83.50;;;;;;5106520;28;20330;-59
2022/02/12 12:30:55;;;;;;;42.80;12.15;;;25.70;83.60;;;;;;5104890;28;20027;-58
2022/02/12 12:33:23;;;;;;;36.95;12.30;;;25.70;83.40;;;;;;5104394;28;20066;-58
2022/02/12 12:35:51;;;;;;;33.88;12.38;;;25.70;83.50;;;;;;5104846;28;20024;-58
2022/02/12 12:38:18;;;;;;;35.25;13.55;;;25.70;83.60;;;;;;5104899;28;20083;-58
2022/02/12 12:40:45;;;;;;;33.78;13.02;;;25.70;83.70;;;;;;5104897;28;20027;-58
2022/02/12 12:43:14;;;;;;;33.00;12.43;;;25.70;83.50;;;;;;5104695;28;20046;-57
2022/02/12 12:45:42;;;;;;;28.90;11.95;;;25.80;83.70;;;;;;5105688;28;20031;-59
2022/02/12 12:48:09;;;;;;;20.67;10.98;;;25.70;83.50;;;;;;5106135;28;20065;-58
2022/02/12 12:50:38;;;;;;;21.45;10.52;;;25.80;83.50;;;;;;5106134;28;20024;-60
2022/02/12 12:53:10;;;;;;;23.63;9.80;;;25.80;83.40;;;;;;5105982;28;20012;-60
2022/02/12 12:55:38;;;;;;;17.63;9.10;;;25.80;83.40;;;;;;5105903;28;20059;-60